Accueil
METAR-TAF:

METAR-TAF

Aéroports :

Pruniers

Romorantin, France

latitude: 47-19N, longitude: 001-41E, altitude: 85 m

Observation

Le bulletin a été fait il y a 38 minutes, à 15:30 UTC
Vent 7 kt de nord-est, variant entre nord et est/nord-est
Température 7°C
Humidité 61%
Pression 1025 hPa
Visibilité 10 km ou plus
Ciel couvert à une hauteur de 3600 ft

METAR: LFYR 051530Z AUTO 04007KT 350V070 9999 OVC036 07/M00 Q1025

Heure: 17:08 (16:08 UTC)

Prévision

Le bulletin a été fait il y a 8 heures et 8 minutes, à 08:00 UTC
Prévision valable du 05 à 09 UTC au 06 à 09 UTC
Vent 5 kt de nord/nord-est
Visibilité 10 km ou plus
Nuages fragmentés à une hauteur de 1700 ft
Nuages fragmentés à une hauteur de 2500 ft
Temporairement
du 05 à 14 UTC au 05 à 18 UTC
Vent 10 kt de nord-est avec des rafales jusqu'à 20 kt

TAF: LFYR 050800Z 0509/0609 03005KT 9999 BKN017 BKN025 TEMPO 0514/0518 04010G20KT

Observations et prévisions météorologiques de plus de 4000 aéroports (messages METAR et TAF).

Les stations disponibles sont représentées par des disques jaunes et rouges sur la carte.

Passer la souris dessus pour voir le nom de la station.

Cliquer dessus pour voir les observations et prévisions météorologiques.

Pour changer de carte: cliquez sur les boutons verts avec une croix noire pour zoomer, sur le bouton vert avec un tiret pour effectuer un zoom arrière, ou sur les flèches vertes pour les cartes adjacentes.


METAR-TAF: